Time;durP1;ratioP1;P1;durP2;ratioP2;P2;SDS_P1;SDS_P2;PMS_P1;PMS_P2;Temp;Humidity;BMP_temperature;BMP_pressure;BME280_temperature;BME280_humidity;BME280_pressure;Samples;Min_cycle;Max_cycle;Signal;HPM_P1;HPM_P2
2022/08/10 00:00:48;;;;;;;3.90;2.35;;;;;;;;;;5012729;28;20587;-63
2022/08/10 00:03:13;;;;;;;2.50;2.00;;;;;;;;;;5012207;28;20212;-63
2022/08/10 00:05:38;;;;;;;7.63;2.03;;;;;;;;;;5013530;28;20239;-63
2022/08/10 00:08:03;;;;;;;4.95;2.13;;;;;;;;;;5015621;28;20224;-63
2022/08/10 00:10:29;;;;;;;3.80;1.90;;;;;;;;;;5016373;28;20312;-63
2022/08/10 00:12:54;;;;;;;2.47;1.83;;;;;;;;;;5015251;28;20220;-63
2022/08/10 00:15:20;;;;;;;5.20;2.10;;;;;;;;;;5015675;28;20216;-63
2022/08/10 00:17:45;;;;;;;2.75;2.00;;;;;;;;;;5015917;28;20204;-63
2022/08/10 00:20:10;;;;;;;3.70;1.92;;;;;;;;;;5015082;28;20222;-63
2022/08/10 00:22:36;;;;;;;2.85;2.10;;;;;;;;;;5015940;28;20671;-63
2022/08/10 00:25:01;;;;;;;3.15;1.90;;;;;;;;;;5015547;28;20231;-63
2022/08/10 00:27:26;;;;;;;3.55;1.90;;;;;;;;;;5015195;28;20554;-63
2022/08/10 00:29:52;;;;;;;3.92;1.92;;;;;;;;;;5016142;28;20350;-63
2022/08/10 00:32:17;;;;;;;3.03;1.90;;;;;;;;;;5015318;28;20266;-63
2022/08/10 00:34:42;;;;;;;4.60;2.00;;;;;;;;;;5015414;28;20366;-63
2022/08/10 00:37:08;;;;;;;4.38;2.45;;;;;;;;;;5015232;28;20228;-64
2022/08/10 00:39:33;;;;;;;5.45;2.00;;;;;;;;;;5015018;28;20227;-63
2022/08/10 00:41:58;;;;;;;2.70;1.80;;;;;;;;;;5015846;28;20208;-63
2022/08/10 00:44:23;;;;;;;4.72;2.35;;;;;;;;;;5015177;28;20208;-63
2022/08/10 00:46:49;;;;;;;4.00;2.17;;;;;;;;;;5014837;28;20247;-63
2022/08/10 00:49:14;;;;;;;3.58;1.95;;;;;;;;;;5015048;28;20217;-63
2022/08/10 00:51:39;;;;;;;3.28;1.90;;;;;;;;;;5015286;28;20212;-63
2022/08/10 00:54:05;;;;;;;4.28;2.20;;;;;;;;;;5012849;28;20251;-63
2022/08/10 00:56:31;;;;;;;3.35;2.22;;;;;;;;;;5015739;28;20243;-63
2022/08/10 00:58:56;;;;;;;2.47;2.00;;;;;;;;;;5014033;28;20244;-63
2022/08/10 01:01:21;;;;;;;3.20;2.00;;;;;;;;;;5012943;28;20605;-63
2022/08/10 01:03:46;;;;;;;4.60;1.92;;;;;;;;;;5015112;28;20239;-63
2022/08/10 01:06:12;;;;;;;3.50;2.28;;;;;;;;;;5014593;28;20266;-63
2022/08/10 01:08:46;;;;;;;2.97;2.05;;;;;;;;;;5014210;28;20319;-63
2022/08/10 01:11:14;;;;;;;3.25;1.98;;;;;;;;;;5014610;28;20204;-63
2022/08/10 01:13:42;;;;;;;3.80;2.22;;;;;;;;;;5015052;28;20208;-63
2022/08/10 01:16:17;;;;;;;3.00;2.10;;;;;;;;;;5013144;28;20220;-63
2022/08/10 01:18:52;;;;;;;5.38;2.50;;;;;;;;;;5013311;28;20231;-63
2022/08/10 01:21:41;;;;;;;2.45;1.98;;;;;;;;;;5013328;28;20223;-64
2022/08/10 01:24:08;;;;;;;6.10;2.30;;;;;;;;;;5013076;28;20214;-64
2022/08/10 01:26:36;;;;;;;4.22;2.25;;;;;;;;;;5013649;28;20240;-64
2022/08/10 01:29:07;;;;;;;4.63;2.35;;;;;;;;;;5012393;28;20216;-64
2022/08/10 01:31:33;;;;;;;4.50;2.28;;;;;;;;;;5013728;28;20218;-64
2022/08/10 01:34:01;;;;;;;6.03;2.70;;;;;;;;;;5013411;28;20555;-64
2022/08/10 01:36:28;;;;;;;4.95;2.67;;;;;;;;;;5011812;28;20686;-64
2022/08/10 01:38:53;;;;;;;3.55;2.75;;;;;;;;;;5012848;28;20220;-63
2022/08/10 01:41:20;;;;;;;6.20;2.72;;;;;;;;;;5013529;28;20212;-64
2022/08/10 01:43:49;;;;;;;4.72;3.05;;;;;;;;;;5026649;28;20262;-63
2022/08/10 01:46:14;;;;;;;4.68;2.92;;;;;;;;;;5026675;28;20244;-63
2022/08/10 01:48:41;;;;;;;4.45;3.25;;;;;;;;;;5013140;28;20275;-64
2022/08/10 01:51:06;;;;;;;4.45;2.80;;;;;;;;;;5011929;28;20689;-63
2022/08/10 01:53:42;;;;;;;5.95;2.90;;;;;;;;;;5014389;28;20212;-64
2022/08/10 01:56:08;;;;;;;5.68;3.00;;;;;;;;;;5021470;28;20576;-64
2022/08/10 01:58:34;;;;;;;5.55;3.10;;;;;;;;;;5031851;28;20220;-63
2022/08/10 02:00:59;;;;;;;3.83;2.75;;;;;;;;;;5032606;28;20277;-63
2022/08/10 02:03:24;;;;;;;5.13;2.90;;;;;;;;;;5032540;28;20667;-63
2022/08/10 02:05:52;;;;;;;4.53;3.30;;;;;;;;;;5031864;28;20216;-63
2022/08/10 02:08:17;;;;;;;5.15;3.20;;;;;;;;;;5032035;28;20234;-63
2022/08/10 02:10:42;;;;;;;5.55;3.20;;;;;;;;;;5032570;28;20302;-63
2022/08/10 02:13:08;;;;;;;5.85;3.20;;;;;;;;;;5016046;28;20208;-63
2022/08/10 02:15:33;;;;;;;4.88;3.60;;;;;;;;;;5013944;28;20256;-63
2022/08/10 02:17:59;;;;;;;8.20;3.30;;;;;;;;;;5013424;28;20262;-63
2022/08/10 02:20:26;;;;;;;7.75;3.75;;;;;;;;;;5013113;28;20216;-63
2022/08/10 02:22:52;;;;;;;4.55;3.28;;;;;;;;;;5014137;28;20213;-63
2022/08/10 02:25:18;;;;;;;6.10;3.90;;;;;;;;;;4995160;28;20633;-63
2022/08/10 02:27:43;;;;;;;6.80;3.47;;;;;;;;;;5013262;28;20243;-63
2022/08/10 02:30:09;;;;;;;5.45;3.30;;;;;;;;;;5013092;28;20248;-63
2022/08/10 02:32:34;;;;;;;5.65;3.70;;;;;;;;;;5013037;28;20212;-63
2022/08/10 02:35:00;;;;;;;7.18;3.67;;;;;;;;;;5013575;28;20243;-63
2022/08/10 02:37:25;;;;;;;6.18;3.88;;;;;;;;;;5011768;28;20207;-63
2022/08/10 02:39:50;;;;;;;5.43;3.85;;;;;;;;;;5011233;28;20228;-63
2022/08/10 02:42:21;;;;;;;7.55;4.40;;;;;;;;;;5013047;28;20274;-64
2022/08/10 02:44:47;;;;;;;6.45;4.53;;;;;;;;;;5013284;28;20303;-63
2022/08/10 02:47:21;;;;;;;6.93;4.13;;;;;;;;;;5021923;28;20211;-64
2022/08/10 02:49:48;;;;;;;6.80;4.15;;;;;;;;;;5031846;28;20243;-63
2022/08/10 02:52:15;;;;;;;6.70;4.50;;;;;;;;;;5031546;28;20227;-63
2022/08/10 02:54:43;;;;;;;7.30;4.40;;;;;;;;;;5030872;28;20266;-63
2022/08/10 02:57:11;;;;;;;8.55;4.50;;;;;;;;;;5031082;28;20262;-63
2022/08/10 02:59:39;;;;;;;5.97;4.25;;;;;;;;;;5031629;28;20273;-63
2022/08/10 03:02:04;;;;;;;10.10;4.30;;;;;;;;;;5031858;28;20220;-63
2022/08/10 03:04:30;;;;;;;6.60;4.50;;;;;;;;;;5031486;28;20273;-63
2022/08/10 03:06:57;;;;;;;7.65;4.32;;;;;;;;;;5031168;28;20573;-63
2022/08/10 03:09:22;;;;;;;7.30;4.93;;;;;;;;;;5031456;28;20249;-63
2022/08/10 03:11:48;;;;;;;7.18;4.75;;;;;;;;;;5031625;28;20220;-63
2022/08/10 03:14:13;;;;;;;9.73;5.18;;;;;;;;;;5029947;28;20223;-63
2022/08/10 03:16:38;;;;;;;7.65;5.00;;;;;;;;;;4998419;28;20578;-63
2022/08/10 03:19:04;;;;;;;8.40;5.07;;;;;;;;;;4991874;28;20217;-63
2022/08/10 03:21:29;;;;;;;8.05;5.43;;;;;;;;;;4991216;28;20205;-63
2022/08/10 03:23:54;;;;;;;7.57;5.55;;;;;;;;;;4993221;28;20216;-63
2022/08/10 03:26:20;;;;;;;6.60;4.88;;;;;;;;;;4992693;28;20232;-63
2022/08/10 03:28:45;;;;;;;8.02;5.32;;;;;;;;;;4992450;28;20722;-63
2022/08/10 03:31:10;;;;;;;7.75;5.20;;;;;;;;;;4991465;28;20272;-63
2022/08/10 03:33:36;;;;;;;7.72;5.53;;;;;;;;;;4992163;28;20299;-63
2022/08/10 03:36:02;;;;;;;7.13;5.55;;;;;;;;;;4990714;28;20252;-63
2022/08/10 03:38:27;;;;;;;7.07;5.93;;;;;;;;;;4995430;28;20247;-63
2022/08/10 03:40:53;;;;;;;9.02;6.05;;;;;;;;;;5015184;28;20307;-63
2022/08/10 03:43:18;;;;;;;7.82;6.00;;;;;;;;;;5015537;28;20696;-63
2022/08/10 03:45:46;;;;;;;11.00;6.30;;;;;;;;;;5015404;28;20227;-63
2022/08/10 03:48:11;;;;;;;12.43;6.60;;;;;;;;;;5014937;28;20690;-64
2022/08/10 03:50:37;;;;;;;8.45;6.18;;;;;;;;;;5014606;28;20211;-64
2022/08/10 03:53:02;;;;;;;11.30;6.28;;;;;;;;;;5015050;28;20234;-64
2022/08/10 03:55:27;;;;;;;7.55;5.80;;;;;;;;;;5016488;28;20211;-63
2022/08/10 03:57:52;;;;;;;9.30;6.43;;;;;;;;;;5015541;28;20584;-63
2022/08/10 04:00:18;;;;;;;10.75;6.82;;;;;;;;;;5015937;28;20216;-64
2022/08/10 04:02:44;;;;;;;9.13;6.20;;;;;;;;;;5016405;28;20716;-63
2022/08/10 04:05:10;;;;;;;12.57;7.43;;;;;;;;;;5014017;28;20212;-64
2022/08/10 04:07:35;;;;;;;11.30;7.25;;;;;;;;;;5016167;28;20227;-64
2022/08/10 04:10:00;;;;;;;10.45;6.78;;;;;;;;;;5015782;28;20649;-65
2022/08/10 04:12:26;;;;;;;11.23;7.32;;;;;;;;;;5014137;28;20220;-63
2022/08/10 04:14:51;;;;;;;11.07;7.80;;;;;;;;;;5016465;28;20211;-63
2022/08/10 04:17:16;;;;;;;14.10;7.30;;;;;;;;;;5015496;28;20220;-63
2022/08/10 04:19:43;;;;;;;10.65;7.93;;;;;;;;;;5015395;28;20224;-62
2022/08/10 04:22:09;;;;;;;10.65;7.65;;;;;;;;;;5015552;28;20239;-63
2022/08/10 04:24:35;;;;;;;11.38;7.35;;;;;;;;;;5014632;28;20283;-63
2022/08/10 04:27:00;;;;;;;12.30;7.97;;;;;;;;;;5014356;28;20307;-62
2022/08/10 04:29:25;;;;;;;9.57;7.65;;;;;;;;;;5014511;28;20218;-62
2022/08/10 04:31:51;;;;;;;9.80;7.57;;;;;;;;;;5014924;28;20579;-62
2022/08/10 04:34:16;;;;;;;10.52;7.82;;;;;;;;;;5014103;28;20227;-62
2022/08/10 04:36:42;;;;;;;12.77;8.75;;;;;;;;;;5015802;28;20235;-63
2022/08/10 04:39:07;;;;;;;12.73;9.73;;;;;;;;;;5013013;28;20239;-63
2022/08/10 04:41:34;;;;;;;12.07;8.65;;;;;;;;;;5015688;28;20212;-62
2022/08/10 04:43:59;;;;;;;13.95;8.95;;;;;;;;;;5015585;28;20235;-63
2022/08/10 04:46:24;;;;;;;12.10;9.18;;;;;;;;;;5016306;28;20683;-63
2022/08/10 04:48:50;;;;;;;11.32;8.75;;;;;;;;;;5035177;28;20291;-62
2022/08/10 04:51:15;;;;;;;12.25;9.20;;;;;;;;;;5032554;28;20220;-63
2022/08/10 04:53:40;;;;;;;15.27;8.82;;;;;;;;;;5034277;28;20208;-63
2022/08/10 04:56:07;;;;;;;10.90;8.63;;;;;;;;;;5033577;28;20243;-63
2022/08/10 04:58:33;;;;;;;12.23;8.15;;;;;;;;;;5034941;28;20228;-63
2022/08/10 05:00:58;;;;;;;11.63;8.25;;;;;;;;;;5034471;28;20277;-63
2022/08/10 05:03:23;;;;;;;13.48;8.20;;;;;;;;;;5034422;28;20216;-63
2022/08/10 05:05:48;;;;;;;13.30;8.60;;;;;;;;;;5034914;28;20654;-63
2022/08/10 05:08:14;;;;;;;13.35;8.25;;;;;;;;;;5033770;28;20239;-63
2022/08/10 05:10:39;;;;;;;12.25;8.48;;;;;;;;;;5034865;28;20204;-63
2022/08/10 05:13:04;;;;;;;11.75;8.52;;;;;;;;;;5034449;28;20212;-63
2022/08/10 05:15:30;;;;;;;13.45;9.30;;;;;;;;;;5019454;28;20205;-63
2022/08/10 05:17:55;;;;;;;12.20;8.63;;;;;;;;;;4995251;28;20560;-63
2022/08/10 05:20:20;;;;;;;10.75;7.70;;;;;;;;;;4994870;28;20211;-63
2022/08/10 05:22:46;;;;;;;12.93;8.15;;;;;;;;;;4994640;28;20213;-63
2022/08/10 05:25:12;;;;;;;10.57;8.00;;;;;;;;;;4994888;28;20224;-63
2022/08/10 05:27:38;;;;;;;10.75;7.55;;;;;;;;;;4995187;28;20280;-63
2022/08/10 05:30:03;;;;;;;8.60;6.90;;;;;;;;;;4993946;28;20691;-64
2022/08/10 05:32:30;;;;;;;11.00;8.23;;;;;;;;;;4993988;28;20572;-63
2022/08/10 05:34:55;;;;;;;13.40;7.40;;;;;;;;;;4993024;28;20217;-63
2022/08/10 05:37:20;;;;;;;9.93;7.70;;;;;;;;;;4994544;28;20229;-63
2022/08/10 05:39:46;;;;;;;9.30;7.45;;;;;;;;;;5007897;28;20216;-63
2022/08/10 05:42:11;;;;;;;10.93;8.13;;;;;;;;;;5013228;28;20270;-63
2022/08/10 05:44:36;;;;;;;9.85;7.65;;;;;;;;;;5014452;28;20204;-63
2022/08/10 05:47:01;;;;;;;13.05;7.63;;;;;;;;;;5013864;28;20652;-64
2022/08/10 05:49:27;;;;;;;12.73;7.55;;;;;;;;;;5013467;28;20299;-63
2022/08/10 05:51:52;;;;;;;10.18;8.18;;;;;;;;;;5013173;28;20222;-63
2022/08/10 05:54:17;;;;;;;9.95;7.28;;;;;;;;;;5013881;28;20224;-63
2022/08/10 05:56:43;;;;;;;11.00;7.95;;;;;;;;;;5013730;28;20208;-63
2022/08/10 05:59:09;;;;;;;10.23;7.30;;;;;;;;;;5013602;28;20235;-63
2022/08/10 06:01:35;;;;;;;13.38;8.02;;;;;;;;;;5014221;28;20200;-63
2022/08/10 06:04:01;;;;;;;11.27;8.02;;;;;;;;;;5012468;28;20212;-64
2022/08/10 06:06:27;;;;;;;13.30;7.25;;;;;;;;;;5012972;28;20300;-63
2022/08/10 06:08:52;;;;;;;11.95;7.68;;;;;;;;;;5013714;28;20600;-63
2022/08/10 06:11:17;;;;;;;11.75;6.55;;;;;;;;;;5012982;28;20215;-63
2022/08/10 06:16:28;;;;;;;12.57;7.35;;;;;;;;;;5013466;28;20215;-63
2022/08/10 06:18:53;;;;;;;12.05;7.50;;;;;;;;;;5011606;28;20221;-64
2022/08/10 06:21:18;;;;;;;12.48;7.30;;;;;;;;;;5013381;28;20343;-63
2022/08/10 06:23:44;;;;;;;11.85;6.30;;;;;;;;;;5012703;28;20335;-63
2022/08/10 06:26:09;;;;;;;9.07;6.50;;;;;;;;;;5011367;28;20698;-63
2022/08/10 06:28:36;;;;;;;10.02;6.55;;;;;;;;;;5013858;28;20339;-63
2022/08/10 06:31:02;;;;;;;9.40;6.65;;;;;;;;;;5011170;28;20224;-64
2022/08/10 06:33:29;;;;;;;8.73;6.57;;;;;;;;;;5012164;28;20215;-63
2022/08/10 06:35:55;;;;;;;11.63;7.32;;;;;;;;;;5013482;28;20216;-63
2022/08/10 06:38:20;;;;;;;11.07;6.45;;;;;;;;;;5012198;28;20635;-63
2022/08/10 06:40:46;;;;;;;10.48;6.70;;;;;;;;;;5013383;28;20216;-63
2022/08/10 06:43:12;;;;;;;9.95;6.10;;;;;;;;;;5011869;28;20256;-63
2022/08/10 06:45:43;;;;;;;10.10;6.63;;;;;;;;;;5011140;28;20204;-63
2022/08/10 06:48:09;;;;;;;9.45;6.85;;;;;;;;;;5029273;28;20753;-63
2022/08/10 06:50:36;;;;;;;13.98;6.57;;;;;;;;;;5031667;28;20659;-63
2022/08/10 06:53:01;;;;;;;9.57;7.15;;;;;;;;;;5031828;28;20224;-63
2022/08/10 06:55:27;;;;;;;10.82;5.97;;;;;;;;;;5033082;28;20295;-63
2022/08/10 06:57:52;;;;;;;8.68;6.65;;;;;;;;;;5031433;28;20302;-63
2022/08/10 07:00:17;;;;;;;10.20;6.50;;;;;;;;;;5030320;28;20290;-63
2022/08/10 07:02:45;;;;;;;9.48;6.35;;;;;;;;;;5032981;28;20218;-63
2022/08/10 07:05:12;;;;;;;9.88;6.47;;;;;;;;;;5032315;28;20694;-64
2022/08/10 07:07:38;;;;;;;13.52;6.60;;;;;;;;;;5031799;28;20224;-63
2022/08/10 07:10:03;;;;;;;14.05;6.60;;;;;;;;;;5031059;28;20222;-64
2022/08/10 07:12:29;;;;;;;10.50;6.88;;;;;;;;;;5032725;28;20208;-63
2022/08/10 07:14:54;;;;;;;12.43;6.72;;;;;;;;;;5025008;28;20209;-63
2022/08/10 07:17:21;;;;;;;10.40;7.07;;;;;;;;;;4993551;28;20242;-63
2022/08/10 07:19:48;;;;;;;13.48;7.10;;;;;;;;;;4993120;28;20225;-63
2022/08/10 07:22:14;;;;;;;12.20;5.88;;;;;;;;;;4990834;28;20216;-63
2022/08/10 07:24:39;;;;;;;9.77;5.95;;;;;;;;;;4992369;28;20228;-63
2022/08/10 07:27:04;;;;;;;12.77;6.53;;;;;;;;;;4992703;28;20687;-63
2022/08/10 07:29:30;;;;;;;13.75;7.13;;;;;;;;;;4991021;28;20205;-63
2022/08/10 07:31:56;;;;;;;9.35;6.18;;;;;;;;;;4991927;28;20217;-63
2022/08/10 07:34:21;;;;;;;12.30;6.13;;;;;;;;;;4990717;28;20204;-64
2022/08/10 07:36:46;;;;;;;7.82;5.40;;;;;;;;;;4992923;28;20703;-64
2022/08/10 07:39:12;;;;;;;9.90;6.20;;;;;;;;;;5000992;28;20220;-64
2022/08/10 07:41:39;;;;;;;10.27;5.82;;;;;;;;;;5011899;28;20863;-63
2022/08/10 07:44:04;;;;;;;10.55;5.95;;;;;;;;;;5010913;28;20220;-64
2022/08/10 07:46:29;;;;;;;9.23;6.18;;;;;;;;;;5011348;28;20290;-63
2022/08/10 07:48:58;;;;;;;9.07;6.00;;;;;;;;;;5010450;28;20225;-63
2022/08/10 07:51:23;;;;;;;8.95;5.53;;;;;;;;;;5012190;28;20205;-64
2022/08/10 07:53:50;;;;;;;10.05;5.60;;;;;;;;;;5012587;28;20573;-64
2022/08/10 07:56:16;;;;;;;10.00;5.85;;;;;;;;;;5010264;28;20231;-64
2022/08/10 07:58:46;;;;;;;10.65;6.10;;;;;;;;;;5011205;28;20228;-63
2022/08/10 08:01:12;;;;;;;7.95;5.60;;;;;;;;;;5010946;28;20219;-64
2022/08/10 08:03:37;;;;;;;8.52;5.40;;;;;;;;;;5010853;28;20216;-63
2022/08/10 08:06:02;;;;;;;8.02;5.32;;;;;;;;;;5010736;28;20212;-64
2022/08/10 08:08:28;;;;;;;9.50;5.88;;;;;;;;;;5010884;28;20243;-63
2022/08/10 08:10:53;;;;;;;8.38;5.13;;;;;;;;;;5011765;28;20278;-63
2022/08/10 08:13:19;;;;;;;8.88;5.38;;;;;;;;;;5012046;28;20215;-63
2022/08/10 08:15:44;;;;;;;11.07;4.97;;;;;;;;;;5012331;28;20213;-63
2022/08/10 08:18:09;;;;;;;11.75;5.40;;;;;;;;;;5009836;28;20259;-64
2022/08/10 08:20:35;;;;;;;10.38;4.78;;;;;;;;;;5012162;28;20217;-63
2022/08/10 08:23:00;;;;;;;7.63;4.72;;;;;;;;;;5012320;28;20227;-63
2022/08/10 08:25:25;;;;;;;8.60;4.60;;;;;;;;;;5010331;28;20208;-63
2022/08/10 08:27:54;;;;;;;8.45;4.75;;;;;;;;;;5015961;28;20208;-63
2022/08/10 08:30:20;;;;;;;8.77;4.38;;;;;;;;;;5014192;28;20235;-63
2022/08/10 08:32:45;;;;;;;8.15;3.95;;;;;;;;;;5014051;28;20585;-63
2022/08/10 08:35:12;;;;;;;9.48;4.65;;;;;;;;;;5014209;28;20299;-63
2022/08/10 08:37:38;;;;;;;10.40;4.43;;;;;;;;;;5013705;28;20209;-63
2022/08/10 08:40:04;;;;;;;9.45;4.30;;;;;;;;;;5015180;28;20236;-63
2022/08/10 08:42:36;;;;;;;12.52;4.75;;;;;;;;;;5015588;28;20212;-63
2022/08/10 08:45:19;;;;;;;11.38;4.65;;;;;;;;;;5014471;28;20251;-63
2022/08/10 08:48:03;;;;;;;13.70;4.97;;;;;;;;;;4995950;28;20344;-63
2022/08/10 08:50:36;;;;;;;8.15;4.40;;;;;;;;;;4995620;28;20221;-63
2022/08/10 08:53:01;;;;;;;10.35;4.00;;;;;;;;;;4993588;28;20292;-64
2022/08/10 08:55:26;;;;;;;7.40;4.32;;;;;;;;;;4996053;28;20760;-63
2022/08/10 08:58:00;;;;;;;8.68;3.80;;;;;;;;;;4995771;28;20248;-63
2022/08/10 09:00:31;;;;;;;10.18;4.15;;;;;;;;;;4994733;28;20245;-63
2022/08/10 09:03:09;;;;;;;7.22;4.00;;;;;;;;;;4994321;28;20308;-63
2022/08/10 09:05:46;;;;;;;12.20;4.10;;;;;;;;;;4994410;28;20223;-63
2022/08/10 09:08:22;;;;;;;8.45;3.72;;;;;;;;;;4993567;28;20229;-63
2022/08/10 09:10:50;;;;;;;9.63;3.42;;;;;;;;;;4994434;28;20213;-64
2022/08/10 09:13:16;;;;;;;5.70;3.28;;;;;;;;;;4993324;28;20280;-64
2022/08/10 09:16:03;;;;;;;5.72;3.40;;;;;;;;;;5007698;28;20679;-63
2022/08/10 09:18:45;;;;;;;7.10;3.63;;;;;;;;;;5013393;28;20290;-63
2022/08/10 09:21:16;;;;;;;5.10;2.47;;;;;;;;;;5014085;28;20771;-63
2022/08/10 09:23:44;;;;;;;4.30;2.58;;;;;;;;;;5013550;28;20220;-63
2022/08/10 09:26:13;;;;;;;6.05;2.80;;;;;;;;;;5013425;28;20212;-63
2022/08/10 09:28:39;;;;;;;4.65;2.53;;;;;;;;;;5013987;28;20208;-63
2022/08/10 09:31:06;;;;;;;7.55;2.92;;;;;;;;;;5014332;28;20216;-63
2022/08/10 09:33:50;;;;;;;6.72;3.00;;;;;;;;;;5014803;28;20208;-63
2022/08/10 09:36:16;;;;;;;6.45;2.72;;;;;;;;;;5013403;28;20221;-63
2022/08/10 09:38:51;;;;;;;4.22;1.98;;;;;;;;;;5013498;28;20274;-63
2022/08/10 09:41:34;;;;;;;4.82;1.80;;;;;;;;;;5012290;28;20207;-63
2022/08/10 09:44:07;;;;;;;3.22;1.85;;;;;;;;;;5013391;28;20227;-64
2022/08/10 09:46:38;;;;;;;2.92;1.58;;;;;;;;;;5017379;28;20200;-63
2022/08/10 09:49:09;;;;;;;5.43;2.10;;;;;;;;;;5033029;28;20216;-64
2022/08/10 09:51:36;;;;;;;3.35;1.65;;;;;;;;;;5034164;28;20211;-63
2022/08/10 09:54:06;;;;;;;6.20;1.75;;;;;;;;;;5033719;28;20210;-64
2022/08/10 09:56:50;;;;;;;5.15;1.50;;;;;;;;;;5033807;28;20262;-64
2022/08/10 09:59:25;;;;;;;5.70;1.63;;;;;;;;;;5033336;28;20232;-63
2022/08/10 10:02:02;;;;;;;2.50;1.40;;;;;;;;;;5034172;28;20754;-63
2022/08/10 10:04:32;;;;;;;5.20;1.50;;;;;;;;;;5032462;28;20207;-63
2022/08/10 10:06:58;;;;;;;5.97;1.60;;;;;;;;;;5033640;28;20285;-63
2022/08/10 10:09:35;;;;;;;5.47;1.80;;;;;;;;;;5032595;28;20616;-63
2022/08/10 10:12:06;;;;;;;4.90;1.83;;;;;;;;;;5032103;28;20211;-64
2022/08/10 10:14:32;;;;;;;2.67;1.50;;;;;;;;;;5029477;28;20255;-63
2022/08/10 10:17:06;;;;;;;5.07;1.60;;;;;;;;;;4997417;28;20601;-63
2022/08/10 10:19:36;;;;;;;3.85;1.60;;;;;;;;;;4992611;28;20264;-63
2022/08/10 10:22:20;;;;;;;6.50;1.55;;;;;;;;;;4994110;28;20314;-63
2022/08/10 10:24:49;;;;;;;5.78;1.70;;;;;;;;;;4993342;28;20221;-63
2022/08/10 10:27:25;;;;;;;3.83;1.73;;;;;;;;;;4992636;28;20205;-63
2022/08/10 10:29:57;;;;;;;2.13;1.33;;;;;;;;;;4994060;28;20224;-63
2022/08/10 10:32:31;;;;;;;2.15;1.20;;;;;;;;;;4992899;28;20209;-63
2022/08/10 10:35:05;;;;;;;3.55;1.58;;;;;;;;;;4993804;28;20694;-63
2022/08/10 10:37:31;;;;;;;3.83;1.40;;;;;;;;;;4991581;28;20275;-63
2022/08/10 10:39:56;;;;;;;5.03;1.50;;;;;;;;;;5009346;28;20321;-63
2022/08/10 10:42:34;;;;;;;4.22;1.33;;;;;;;;;;5011865;28;20228;-64
2022/08/10 10:45:15;;;;;;;4.28;1.30;;;;;;;;;;5011439;28;20212;-63
2022/08/10 10:47:53;;;;;;;2.40;1.30;;;;;;;;;;5011657;28;20263;-63
2022/08/10 10:50:20;;;;;;;4.82;1.30;;;;;;;;;;5011541;28;20219;-63
2022/08/10 10:52:58;;;;;;;5.25;1.38;;;;;;;;;;5012567;28;20224;-64
2022/08/10 10:55:33;;;;;;;3.22;1.40;;;;;;;;;;5011442;28;20222;-63
2022/08/10 10:58:14;;;;;;;3.17;1.20;;;;;;;;;;5012010;28;20295;-64
2022/08/10 11:00:43;;;;;;;5.65;1.40;;;;;;;;;;5012474;28;20217;-63
2022/08/10 11:03:27;;;;;;;6.13;1.50;;;;;;;;;;5011441;28;20751;-64
2022/08/10 11:06:06;;;;;;;2.22;1.30;;;;;;;;;;5011209;28;20219;-63
2022/08/10 11:08:34;;;;;;;2.40;1.27;;;;;;;;;;5011516;28;20584;-64
2022/08/10 11:11:01;;;;;;;4.05;1.35;;;;;;;;;;5012847;28;20568;-63
2022/08/10 11:13:33;;;;;;;3.55;1.00;;;;;;;;;;5012154;28;20655;-63
2022/08/10 11:16:07;;;;;;;3.33;1.10;;;;;;;;;;5011676;28;20208;-63
2022/08/10 11:18:48;;;;;;;7.57;1.40;;;;;;;;;;5012419;28;20609;-63
2022/08/10 11:21:31;;;;;;;4.18;1.85;;;;;;;;;;5011696;28;20753;-63
2022/08/10 11:23:59;;;;;;;4.20;1.40;;;;;;;;;;5011653;28;20219;-63
2022/08/10 11:26:27;;;;;;;3.50;1.38;;;;;;;;;;5010498;28;20219;-63
2022/08/10 11:28:57;;;;;;;2.92;1.10;;;;;;;;;;5011463;28;20216;-63
2022/08/10 11:31:26;;;;;;;4.82;1.45;;;;;;;;;;5011257;28;20231;-63
2022/08/10 11:33:52;;;;;;;2.42;1.20;;;;;;;;;;5012075;28;20350;-63
2022/08/10 11:36:36;;;;;;;6.97;1.40;;;;;;;;;;5010915;28;20589;-64
2022/08/10 11:39:09;;;;;;;4.05;1.33;;;;;;;;;;5012180;28;20224;-64
2022/08/10 11:41:35;;;;;;;4.22;1.45;;;;;;;;;;5010533;28;20699;-64
2022/08/10 11:44:04;;;;;;;3.15;1.10;;;;;;;;;;5012893;28;20225;-63
2022/08/10 11:46:29;;;;;;;5.30;1.63;;;;;;;;;;5015098;28;20218;-64
2022/08/10 11:48:59;;;;;;;3.08;1.23;;;;;;;;;;5031650;28;20215;-64
2022/08/10 11:51:25;;;;;;;3.58;1.10;;;;;;;;;;5030819;28;20203;-63
2022/08/10 11:53:59;;;;;;;2.95;1.13;;;;;;;;;;5032286;28;20330;-63
2022/08/10 11:56:29;;;;;;;4.75;1.05;;;;;;;;;;5031066;28;20673;-63
2022/08/10 12:01:38;;;;;;;2.35;1.13;;;;;;;;;;5033443;28;20693;-63
2022/08/10 12:04:06;;;;;;;2.55;1.00;;;;;;;;;;5034488;28;20204;-64
2022/08/10 12:06:32;;;;;;;2.83;1.42;;;;;;;;;;5034909;28;20319;-64
2022/08/10 12:08:58;;;;;;;2.38;1.00;;;;;;;;;;5033741;28;20278;-64
2022/08/10 12:11:24;;;;;;;4.50;1.35;;;;;;;;;;5034225;28;20694;-64
2022/08/10 12:13:52;;;;;;;2.22;0.90;;;;;;;;;;5034775;28;20271;-64
2022/08/10 12:16:18;;;;;;;2.75;1.08;;;;;;;;;;5005685;28;20315;-63
2022/08/10 12:18:45;;;;;;;6.38;1.45;;;;;;;;;;4995099;28;20269;-63
2022/08/10 12:21:12;;;;;;;2.20;1.05;;;;;;;;;;4995983;28;20220;-64
2022/08/10 12:23:41;;;;;;;3.38;1.65;;;;;;;;;;4994468;28;20216;-63
2022/08/10 12:26:11;;;;;;;4.70;1.33;;;;;;;;;;4995049;28;20291;-64
2022/08/10 12:28:39;;;;;;;2.35;0.85;;;;;;;;;;4995047;28;20213;-63
2022/08/10 12:31:05;;;;;;;5.55;1.17;;;;;;;;;;4994255;28;20221;-64
2022/08/10 12:33:32;;;;;;;3.03;1.13;;;;;;;;;;4996326;28;20212;-63
2022/08/10 12:36:02;;;;;;;5.30;1.50;;;;;;;;;;4994875;28;20220;-63
2022/08/10 12:38:33;;;;;;;2.40;1.40;;;;;;;;;;5013409;28;20228;-63
2022/08/10 12:40:59;;;;;;;3.22;1.30;;;;;;;;;;5015667;28;20217;-63
2022/08/10 12:43:31;;;;;;;2.95;1.20;;;;;;;;;;5014046;28;20549;-63
2022/08/10 12:45:58;;;;;;;2.63;1.20;;;;;;;;;;5014886;28;20209;-63
2022/08/10 12:48:30;;;;;;;4.78;1.10;;;;;;;;;;5015135;28;20215;-63
2022/08/10 12:50:58;;;;;;;2.25;0.88;;;;;;;;;;5013464;28;20219;-63
2022/08/10 12:53:29;;;;;;;3.00;1.10;;;;;;;;;;5013913;28;20566;-63
2022/08/10 12:55:54;;;;;;;3.85;1.10;;;;;;;;;;5015576;28;20213;-63
2022/08/10 12:58:19;;;;;;;1.88;1.33;;;;;;;;;;5012824;28;20299;-63
2022/08/10 13:00:45;;;;;;;5.95;1.10;;;;;;;;;;5012794;28;20220;-63
2022/08/10 13:03:10;;;;;;;2.53;1.23;;;;;;;;;;4996955;28;20368;-63
2022/08/10 13:05:35;;;;;;;2.22;1.10;;;;;;;;;;4989965;28;20312;-63
2022/08/10 13:10:58;;;;;;;2.75;1.00;;;;;;;;;;5004207;28;20674;-63
2022/08/10 13:13:24;;;;;;;3.35;1.30;;;;;;;;;;5005950;28;20695;-63
2022/08/10 13:15:49;;;;;;;1.95;1.20;;;;;;;;;;4994587;28;20213;-63
2022/08/10 13:18:14;;;;;;;3.03;1.20;;;;;;;;;;4989417;28;20221;-63
2022/08/10 13:20:40;;;;;;;2.58;1.10;;;;;;;;;;4999370;28;20563;-63
2022/08/10 13:23:12;;;;;;;3.95;1.40;;;;;;;;;;5007293;28;20256;-63
2022/08/10 13:25:38;;;;;;;3.97;1.20;;;;;;;;;;5005256;28;20711;-63
2022/08/10 13:28:03;;;;;;;2.50;1.00;;;;;;;;;;4999887;28;20212;-64
2022/08/10 13:30:29;;;;;;;2.13;1.13;;;;;;;;;;5000537;28;20334;-63
2022/08/10 13:32:54;;;;;;;3.25;1.10;;;;;;;;;;5001823;28;20258;-63
2022/08/10 13:35:20;;;;;;;3.85;1.00;;;;;;;;;;5007345;28;20565;-63
2022/08/10 13:37:45;;;;;;;1.83;1.20;;;;;;;;;;4997122;28;20213;-63
2022/08/10 13:40:11;;;;;;;2.55;1.05;;;;;;;;;;5004816;28;20680;-64
2022/08/10 13:42:37;;;;;;;2.28;0.93;;;;;;;;;;5007040;28;20610;-64
2022/08/10 13:45:15;;;;;;;2.20;1.00;;;;;;;;;;5007948;28;20216;-64
2022/08/10 13:47:40;;;;;;;3.00;1.10;;;;;;;;;;4986758;28;20307;-64
2022/08/10 13:50:07;;;;;;;3.13;1.15;;;;;;;;;;4998654;28;20220;-63
2022/08/10 13:52:33;;;;;;;2.55;0.95;;;;;;;;;;5000102;28;20556;-63
2022/08/10 13:54:59;;;;;;;4.00;1.20;;;;;;;;;;4998225;28;20239;-63
2022/08/10 13:57:26;;;;;;;1.52;1.10;;;;;;;;;;5007489;28;20631;-63
2022/08/10 13:59:51;;;;;;;2.05;1.17;;;;;;;;;;5006297;28;20674;-63
2022/08/10 14:02:28;;;;;;;3.47;1.20;;;;;;;;;;5008487;28;20217;-63
2022/08/10 14:04:54;;;;;;;4.15;1.10;;;;;;;;;;5031945;28;20310;-63
2022/08/10 14:07:19;;;;;;;2.67;1.10;;;;;;;;;;5033203;28;20306;-63
2022/08/10 14:09:46;;;;;;;4.68;1.17;;;;;;;;;;5032860;28;20297;-63
2022/08/10 14:12:11;;;;;;;2.78;1.08;;;;;;;;;;5005964;28;20221;-63
2022/08/10 14:14:36;;;;;;;3.85;1.27;;;;;;;;;;4996583;28;20212;-63
2022/08/10 14:17:02;;;;;;;2.72;1.58;;;;;;;;;;5011652;28;20240;-63
2022/08/10 14:19:28;;;;;;;4.95;1.50;;;;;;;;;;5013972;28;20224;-63
2022/08/10 14:21:53;;;;;;;2.83;1.00;;;;;;;;;;5012621;28;20209;-63
2022/08/10 14:24:20;;;;;;;5.28;1.20;;;;;;;;;;5012464;28;20290;-63
2022/08/10 14:26:45;;;;;;;4.05;1.17;;;;;;;;;;5012785;28;20243;-63
2022/08/10 14:29:11;;;;;;;3.72;0.98;;;;;;;;;;5013252;28;20699;-63
2022/08/10 14:31:36;;;;;;;2.55;1.00;;;;;;;;;;5011888;28;20213;-63
2022/08/10 14:34:02;;;;;;;3.17;1.10;;;;;;;;;;5012203;28;20244;-63
2022/08/10 14:36:29;;;;;;;1.70;0.90;;;;;;;;;;5012798;28;20205;-63
2022/08/10 14:38:54;;;;;;;4.20;1.20;;;;;;;;;;5013201;28;20319;-63
2022/08/10 14:41:22;;;;;;;1.35;0.80;;;;;;;;;;5011878;28;20405;-63
2022/08/10 14:43:50;;;;;;;3.28;1.25;;;;;;;;;;5011352;28;20239;-63
2022/08/10 14:46:17;;;;;;;3.78;1.38;;;;;;;;;;5011742;28;20215;-63
2022/08/10 14:48:42;;;;;;;4.68;1.10;;;;;;;;;;5013407;28;20223;-63
2022/08/10 14:51:09;;;;;;;2.13;1.10;;;;;;;;;;5011043;28;20212;-63